地図

経路データ

SID SEASON NUMBER BASIN SUBBASIN NAME ISO_TIME NATURE LAT LON WMO_WIND WMO_PRES WMO_AGENCY TRACK_TYPE DIST2LAND LANDFALL IFLAG USA_AGENCY USA_ATCF_ID USA_LAT USA_LON USA_RECORD USA_STATUS USA_WIND USA_PRES USA_SSHS USA_R34_NE USA_R34_SE USA_R34_SW USA_R34_NW USA_R50_NE USA_R50_SE USA_R50_SW USA_R50_NW USA_R64_NE USA_R64_SE USA_R64_SW USA_R64_NW USA_POCI USA_ROCI USA_RMW USA_EYE TOKYO_LAT TOKYO_LON TOKYO_GRADE TOKYO_WIND TOKYO_PRES TOKYO_R50_DIR TOKYO_R50_LONG TOKYO_R50_SHORT TOKYO_R30_DIR TOKYO_R30_LONG TOKYO_R30_SHORT TOKYO_LAND CMA_LAT CMA_LON CMA_CAT CMA_WIND CMA_PRES HKO_LAT HKO_LON HKO_CAT HKO_WIND HKO_PRES NEWDELHI_LAT NEWDELHI_LON NEWDELHI_GRADE NEWDELHI_WIND NEWDELHI_PRES NEWDELHI_CI NEWDELHI_DP NEWDELHI_POCI REUNION_LAT REUNION_LON REUNION_TYPE REUNION_WIND REUNION_PRES REUNION_TNUM REUNION_CI REUNION_RMW REUNION_R34_NE REUNION_R34_SE REUNION_R34_SW REUNION_R34_NW REUNION_R50_NE REUNION_R50_SE REUNION_R50_SW REUNION_R50_NW REUNION_R64_NE REUNION_R64_SE REUNION_R64_SW REUNION_R64_NW BOM_LAT BOM_LON BOM_TYPE BOM_WIND BOM_PRES BOM_TNUM BOM_CI BOM_RMW BOM_R34_NE BOM_R34_SE BOM_R34_SW BOM_R34_NW BOM_R50_NE BOM_R50_SE BOM_R50_SW BOM_R50_NW BOM_R64_NE BOM_R64_SE BOM_R64_SW BOM_R64_NW BOM_ROCI BOM_POCI BOM_EYE BOM_POS_METHOD BOM_PRES_METHOD NADI_LAT NADI_LON NADI_CAT NADI_WIND NADI_PRES WELLINGTON_LAT WELLINGTON_LON WELLINGTON_WIND WELLINGTON_PRES DS824_LAT DS824_LON DS824_STAGE DS824_WIND DS824_PRES TD9636_LAT TD9636_LON TD9636_STAGE TD9636_WIND TD9636_PRES TD9635_LAT TD9635_LON TD9635_WIND TD9635_PRES TD9635_ROCI NEUMANN_LAT NEUMANN_LON NEUMANN_CLASS NEUMANN_WIND NEUMANN_PRES MLC_LAT MLC_LON MLC_CLASS MLC_WIND MLC_PRES USA_GUST BOM_GUST BOM_GUST_PER REUNION_GUST REUNION_GUST_PER USA_SEAHGT USA_SEARAD_NE USA_SEARAD_SE USA_SEARAD_SW USA_SEARAD_NW STORM_SPEED STORM_DIR
1977184N15249 1977 49 EP MM CLAUDIA 1977-07-03 00:00:00 TS 14.5000 -110.900 30 hurdat_epa main 832 832 O________OO___ hurdat_epa EP031977 14.5000 -110.900 TD 30 -1 14.5000 -110.900 TC 30 14.5000 -110.900 1 30 8 292
1977184N15249 1977 49 EP MM CLAUDIA 1977-07-03 03:00:00 TS 14.6584 -111.303 main 847 847 P________PP___ EP031977 14.6702 -111.312 TD 37 0 14.6702 -111.312 TC 37 14.6113 -111.264 1 33 8 290
1977184N15249 1977 49 EP MM CLAUDIA 1977-07-03 06:00:00 TS 14.7836 -111.686 45 hurdat_epa main 873 873 O________OP___ hurdat_epa EP031977 14.8000 -111.700 TS 45 0 14.8000 -111.700 TC 45 14.7178 -111.632 1 37 7 285
1977184N15249 1977 49 EP MM CLAUDIA 1977-07-03 09:00:00 TS 14.8550 -112.042 main 891 891 P________PP___ EP031977 14.8649 -112.050 TS 45 0 14.8649 -112.050 TC 45 14.8154 -112.010 1 41 7 280
1977184N15249 1977 49 EP MM CLAUDIA 1977-07-03 12:00:00 TS 14.9000 -112.400 45 hurdat_epa main 925 925 O________OO___ hurdat_epa EP031977 14.9000 -112.400 TS 45 0 14.9000 -112.400 TC 45 14.9000 -112.400 2 45 7 278
1977184N15249 1977 49 EP MM CLAUDIA 1977-07-03 15:00:00 TS 14.9537 -112.795 main 931 931 P________PP___ EP031977 14.9500 -112.793 TS 47 0 14.9500 -112.793 TC 47 14.9684 -112.805 2 47 8 278
1977184N15249 1977 49 EP MM CLAUDIA 1977-07-03 18:00:00 TS 15.0045 -113.203 50 hurdat_epa main 945 945 O________OP___ hurdat_epa EP031977 15.0000 -113.200 TS 50 0 15.0000 -113.200 TC 50 15.0225 -113.215 2 50 8 277
1977184N15249 1977 49 EP MM CLAUDIA 1977-07-03 21:00:00 TS 15.0530 -113.610 main 950 950 P________PP___ EP031977 15.0500 -113.608 TS 52 0 15.0500 -113.608 TC 52 15.0653 -113.618 2 52 8 277
1977184N15249 1977 49 EP MM CLAUDIA 1977-07-04 00:00:00 TS 15.1000 -114.000 55 hurdat_epa main 968 968 O________OO___ hurdat_epa EP031977 15.1000 -114.000 TS 55 0 15.1000 -114.000 TC 55 15.1000 -114.000 2 55 7 278
1977184N15249 1977 49 EP MM CLAUDIA 1977-07-04 03:00:00 TS 15.1507 -114.358 main 977 977 P________PP___ EP031977 15.1574 -114.365 TS 67 1 15.1574 -114.365 TC 67 15.1236 -114.331 2 61 7 278
1977184N15249 1977 49 EP MM CLAUDIA 1977-07-04 06:00:00 TS 15.1884 -114.689 80 hurdat_epa main 992 992 O________OP___ hurdat_epa EP031977 15.2000 -114.700 HU 80 1 15.2000 -114.700 TC 80 15.1418 -114.643 2 67 6 273
1977184N15249 1977 49 EP MM CLAUDIA 1977-07-04 09:00:00 TS 15.1867 -114.986 main 1008 1008 P________PP___ EP031977 15.1924 -114.993 HU 80 1 15.1924 -114.993 TC 80 15.1642 -114.959 2 73 6 271
1977184N15249 1977 49 EP MM CLAUDIA 1977-07-04 12:00:00 TS 15.2000 -115.300 80 hurdat_epa main 1025 1025 O________OO___ hurdat_epa EP031977 15.2000 -115.300 HU 80 1 15.2000 -115.300 TC 80 15.2000 -115.300 4 80 7 278
1977184N15249 1977 49 EP MM CLAUDIA 1977-07-04 15:00:00 TS 15.2852 -115.676 main 1039 1039 P________PP___ EP031977 15.2925 -115.677 HU 72 1 15.2925 -115.677 TC 72 15.2562 -115.672 4 75 8 284
1977184N15249 1977 49 EP MM CLAUDIA 1977-07-04 18:00:00 TS 15.3854 -116.095 65 hurdat_epa main 1055 1055 O________OP___ hurdat_epa EP031977 15.4000 -116.100 HU 65 1 15.4000 -116.100 TC 65 15.3269 -116.075 4 70 8 281
1977184N15249 1977 49 EP MM CLAUDIA 1977-07-04 21:00:00 TS 15.4417 -116.519 main 1081 1079 P________PP___ EP031977 15.4498 -116.520 HU 62 0 15.4498 -116.520 TC 62 15.4092 -116.516 4 65 9 277
1977184N15249 1977 49 EP MM CLAUDIA 1977-07-05 00:00:00 TS 15.5000 -117.000 60 hurdat_epa main 1106 1106 O________OO___ hurdat_epa EP031977 15.5000 -117.000 TS 60 0 15.5000 -117.000 TC 60 15.5000 -117.000 4 60 10 278
1977184N15249 1977 49 EP MM CLAUDIA 1977-07-05 03:00:00 TS 15.5926 -117.571 main 1141 1141 P________PP___ EP031977 15.5926 -117.585 TS 60 0 15.5926 -117.585 TC 60 15.5926 -117.516 4 60 12 280
1977184N15249 1977 49 EP MM CLAUDIA 1977-07-05 06:00:00 TS 15.6984 -118.175 60 hurdat_epa main 1178 1178 O________OP___ hurdat_epa EP031977 15.7000 -118.200 TS 60 0 15.7000 -118.200 TC 60 15.6920 -118.075 4 60 11 281
1977184N15249 1977 49 EP MM CLAUDIA 1977-07-05 09:00:00 TS 15.8049 -118.734 main 1209 1209 P________PP___ EP031977 15.8072 -118.750 TS 60 0 15.8072 -118.750 TC 60 15.7955 -118.672 4 60 11 281
1977184N15249 1977 49 EP MM CLAUDIA 1977-07-05 12:00:00 TS 15.9000 -119.300 60 hurdat_epa main 1237 1237 O________OO___ hurdat_epa EP031977 15.9000 -119.300 TS 60 0 15.9000 -119.300 TC 60 15.9000 -119.300 2 60 11 278
1977184N15249 1977 49 EP MM CLAUDIA 1977-07-05 15:00:00 TS 15.9561 -119.885 main 1267 1267 P________PP___ EP031977 15.9422 -119.870 TS 60 0 15.9422 -119.870 TC 60 16.0120 -119.946 2 58 12 276
1977184N15249 1977 49 EP MM CLAUDIA 1977-07-05 18:00:00 TS 16.0244 -120.524 60 hurdat_epa main 1308 1308 O________OP___ hurdat_epa EP031977 16.0000 -120.500 TS 60 0 16.0000 -120.500 TC 60 16.1222 -120.620 2 57 13 279
1977184N15249 1977 49 EP MM CLAUDIA 1977-07-05 21:00:00 TS 16.1583 -121.256 main 1348 1348 P________PP___ EP031977 16.1426 -121.242 TS 57 0 16.1426 -121.242 TC 57 16.2213 -121.309 2 56 14 281
1977184N15249 1977 49 EP MM CLAUDIA 1977-07-06 00:00:00 TS 16.3000 -122.000 55 hurdat_epa main 1393 1393 O________OO___ hurdat_epa EP031977 16.3000 -122.000 TS 55 0 16.3000 -122.000 TC 55 16.3000 -122.000 2 55 14 281
1977184N15249 1977 49 EP MM CLAUDIA 1977-07-06 03:00:00 TS 16.4170 -122.663 main 1439 1439 P________PP___ EP031977 16.4296 -122.657 TS 52 0 16.4296 -122.657 TC 52 16.3665 -122.687 2 52 13 278
1977184N15249 1977 49 EP MM CLAUDIA 1977-07-06 06:00:00 TS 16.4819 -123.314 50 hurdat_epa main 1480 1480 O________OP___ hurdat_epa EP031977 16.5000 -123.300 TS 50 0 16.5000 -123.300 TC 50 16.4095 -123.372 2 50 13 272
1977184N15249 1977 49 EP MM CLAUDIA 1977-07-06 09:00:00 TS 16.4625 -124.009 main 1537 1537 P________PP___ EP031977 16.4724 -124.000 TS 47 0 16.4724 -124.000 TC 47 16.4228 -124.046 2 47 13 266
1977184N15249 1977 49 EP MM CLAUDIA 1977-07-06 12:00:00 TS 16.4000 -124.700 45 hurdat_epa main 1602 1602 O________OO___ hurdat_epa EP031977 16.4000 -124.700 TS 45 0 16.4000 -124.700 TC 45 16.4000 -124.700 2 45 13 265
1977184N15249 1977 49 EP MM CLAUDIA 1977-07-06 15:00:00 TS 16.3540 -125.358 main 1654 1654 P________PP___ EP031977 16.3649 -125.372 TS 40 0 16.3649 -125.372 TC 40 16.3103 -125.302 2 41 12 264
1977184N15249 1977 49 EP MM CLAUDIA 1977-07-06 18:00:00 TS 16.2782 -125.977 35 hurdat_epa main 1703 1703 O________OP___ hurdat_epa EP031977 16.3000 -126.000 TS 35 0 16.3000 -126.000 TC 35 16.1908 -125.886 2 37 11 258
1977184N15249 1977 49 EP MM CLAUDIA 1977-07-06 21:00:00 TS 16.1168 -126.524 main 1755 1755 P________PP___ EP031977 16.1270 -126.535 TS 32 -1 16.1270 -126.535 TC 32 16.0759 -126.477 2 33 11 256
1977184N15249 1977 49 EP MM CLAUDIA 1977-07-07 00:00:00 TS 16.0000 -127.100 30 hurdat_epa main 1805 1805 O________OO___ hurdat_epa EP031977 16.0000 -127.100 TD 30 -1 16.0000 -127.100 TC 30 16.0000 -127.100 2 30 12 267
1977184N15249 1977 49 EP MM CLAUDIA 1977-07-07 03:00:00 TS 16.0597 -127.816 main 1847 1847 P________PP___ EP031977 16.0776 -127.827 TD 30 -1 16.0776 -127.827 TC 30 15.9882 -127.774 2 28 14 277
1977184N15249 1977 49 EP MM CLAUDIA 1977-07-07 06:00:00 TS 16.1661 -128.578 30 hurdat_epa main 1899 1899 O________OP___ hurdat_epa EP031977 16.2000 -128.600 TD 30 -1 16.2000 -128.600 TC 30 16.0303 -128.491 2 27 14 276
1977184N15249 1977 49 EP MM CLAUDIA 1977-07-07 09:00:00 TS 16.2076 -129.304 main 1952 1952 P________PP___ EP031977 16.2327 -129.320 TD 27 -1 16.2327 -129.320 TC 27 16.1072 -129.238 2 26 14 271
1977184N15249 1977 49 EP MM CLAUDIA 1977-07-07 12:00:00 TS 16.2000 -130.000 25 hurdat_epa main 2007 O________OO___ hurdat_epa EP031977 16.2000 -130.000 TD 25 -1 16.2000 -130.000 TC 25 16.2000 -130.000 6 25 13 269

IBTrACS Databaseについて

本データベースは、米国NOAAが公開する1842年以降の世界の熱帯低気圧のベストトラックデータアーカイブInternational Best Track Archive for Climate Stewardship (IBTrACS)を、ウェブで閲覧しやすい形式に変換したものです。

最終更新日:2021-12-01